Merrifield, MN (56465)

4:37 AM CST on February 21, 2017 (GMT -0600)
Downtown Lougee | | Change Station

Elev 1194 ft 46.54 °N, 94.15 °W | Updated 79 days ago

Fog
Fog
32.3 °F
Feels Like 27 °F
N
6.0
Wind Variable Wind from WNW
Gusts 6.0 mph

Today
High -- | Low -- °F
--% Chance of Precip.
Yesterday
High -- | Low -- °F
Precip. -- in
Pressure 29.82 in
Visibility 0.2 miles
Clouds
Windchill 27 °F
Dew Point 26 °F
Humidity 78%
Rainfall 0.68 in
Snow Depth Not available.
7:09 AM 5:51 PM
Waning Crescent, 26% visible
SPECI KBRD 211023Z AUTO 24006KT 1/4SM FG VV002 00/00 A2982 RMK AO2 T00000000
Pressure 29.82 in
Visibility 0.2 miles
Clouds
Windchill 27 °F
Dew Point 26 °F
Humidity 78%
Rainfall 0.68 in
Snow Depth Not available.
7:09 AM 5:51 PM
Waning Crescent, 26% visible
SPECI KBRD 211023Z AUTO 24006KT 1/4SM FG VV002 00/00 A2982 RMK AO2 T00000000

Get Your Daily Forecast Email!

Thanks for signing up!

Be on the lookout for a verification email in your inbox.

You'll start receiving the daily forecast at 8 AM.

×

10-Day Weather Forecast

Almanac

Astronomy

Feb. 21, 2017 Rise Set
Actual Time
Civil Twilight
Nautical Twilight
Astronomical Twilight
Moon
Length of Visible Light
Length of Day
Tomorrow will be .
, % of the Moon is Illuminated

Today's Extremes

State Highs State Lows

Community

WunderPhotos

Upload Photos

1,962,540 photos uploaded!

WunderBlog® & News

Nearby

Air Quality

  Air Quality AQ Index Pollutant
Not available.

Snow Depth

Station Depth Elevation

Earthquake Activity

City Distance Mag. Time & Date
Minimum magnitude displayed is 2.5.

Coastal Water Temperatures

Place Temperature

Stations

Nearby Weather Stations

Station Location Temp. Windchill Dew Point Humidity Wind Precip. Elev Updated Type
                   

Watches & Warnings

There are currently no watches in effect.